Time;durP1;ratioP1;P1;durP2;ratioP2;P2;SDS_P1;SDS_P2;PMS_P1;PMS_P2;Temp;Humidity;BMP_temperature;BMP_pressure;BME280_temperature;BME280_humidity;BME280_pressure;Samples;Min_cycle;Max_cycle;Signal;HPM_P1;HPM_P2
2023/11/14 00:02:10;;;;;;;16.30;9.60;;;;;;;8.11;55.60;100424.81;108224;1280;21981;-70
2023/11/14 00:04:37;;;;;;;14.20;9.40;;;;;;;8.12;55.68;100425.35;108213;1280;21998;-59
2023/11/14 00:07:05;;;;;;;13.40;8.60;;;;;;;8.13;55.72;100428.84;108238;1284;21981;-69
2023/11/14 00:09:33;;;;;;;13.20;8.90;;;;;;;8.13;55.70;100430.41;108280;1280;22451;-59
2023/11/14 00:11:59;;;;;;;12.80;8.40;;;;;;;8.14;55.86;100431.45;108223;1278;21992;-60
2023/11/14 00:14:25;;;;;;;11.70;7.60;;;;;;;8.14;55.64;100432.69;108211;1280;22025;-71
2023/11/14 00:16:50;;;;;;;14.20;8.40;;;;;;;8.14;55.84;100433.56;108202;1278;21974;-71
2023/11/14 00:19:18;;;;;;;16.50;9.20;;;;;;;8.13;55.54;100435.66;108188;1274;21986;-60
2023/11/14 00:21:44;;;;;;;25.30;12.60;;;;;;;8.07;55.28;100433.91;108202;1280;21994;-70
2023/11/14 00:24:10;;;;;;;32.70;15.00;;;;;;;8.01;55.26;100438.46;108204;1284;21981;-60
2023/11/14 00:26:35;;;;;;;24.80;11.00;;;;;;;7.96;55.17;100440.91;108232;1281;21991;-70
2023/11/14 00:29:01;;;;;;;20.40;11.10;;;;;;;7.93;55.28;100446.16;108272;1284;21995;-70
2023/11/14 00:31:28;;;;;;;18.00;10.40;;;;;;;7.91;55.38;100450.52;108234;1284;21998;-70
2023/11/14 00:33:54;;;;;;;20.40;10.00;;;;;;;7.87;55.54;100449.30;108266;1274;21991;-59
2023/11/14 00:36:19;;;;;;;21.60;10.70;;;;;;;7.83;55.56;100441.79;108307;1275;22032;-59
2023/11/14 00:38:45;;;;;;;19.80;10.50;;;;;;;7.80;55.54;100440.38;108216;1280;21995;-70
2023/11/14 00:41:11;;;;;;;18.40;9.70;;;;;;;7.78;55.67;100434.96;108224;1282;21991;-59
2023/11/14 00:43:36;;;;;;;24.20;12.20;;;;;;;7.78;55.39;100441.78;108253;1284;22020;-59
2023/11/14 00:46:02;;;;;;;29.40;12.50;;;;;;;7.77;55.02;100440.90;108299;1284;22018;-61
2023/11/14 00:48:28;;;;;;;15.80;9.30;;;;;;;7.73;54.83;100437.59;108190;1284;21995;-70
2023/11/14 00:50:53;;;;;;;13.10;7.80;;;;;;;7.65;54.87;100437.77;108179;1278;21991;-70
2023/11/14 00:53:21;;;;;;;12.40;7.60;;;;;;;7.60;54.85;100434.27;108254;1284;22002;-61
2023/11/14 00:55:46;;;;;;;12.80;7.50;;;;;;;7.56;54.75;100437.40;108260;1284;22446;-60
2023/11/14 00:58:12;;;;;;;12.30;7.40;;;;;;;7.51;54.72;100436.52;108242;1280;21991;-59
2023/11/14 01:00:38;;;;;;;10.60;6.70;;;;;;;7.45;54.59;100429.38;108170;1275;21996;-60
2023/11/14 01:03:04;;;;;;;11.30;7.20;;;;;;;7.40;54.47;100426.39;108291;1284;21982;-71
2023/11/14 01:05:30;;;;;;;11.80;7.10;;;;;;;7.36;54.63;100427.60;108326;1284;22005;-71
2023/11/14 01:07:55;;;;;;;10.80;7.00;;;;;;;7.33;54.66;100423.58;108274;1284;21992;-71
2023/11/14 01:10:23;;;;;;;10.20;6.90;;;;;;;7.28;54.41;100422.36;108196;1277;22025;-60
2023/11/14 01:12:49;;;;;;;9.80;6.50;;;;;;;7.23;54.32;100415.54;108398;1273;21998;-70
2023/11/14 01:15:15;;;;;;;11.80;7.10;;;;;;;7.19;54.17;100415.17;107487;1276;1006154;-60
2023/11/14 01:17:41;;;;;;;10.70;7.40;;;;;;;7.10;54.04;100416.37;108245;1280;21985;-60
2023/11/14 01:20:08;;;;;;;10.20;6.50;;;;;;;6.96;53.67;100415.98;108252;1278;21980;-61
2023/11/14 01:22:34;;;;;;;10.60;7.50;;;;;;;6.83;53.77;100410.70;108266;1284;21990;-73
2023/11/14 01:24:59;;;;;;;10.90;7.00;;;;;;;6.79;54.21;100406.34;108254;1283;22004;-74
2023/11/14 01:27:25;;;;;;;11.10;6.40;;;;;;;6.80;54.52;100408.09;108206;1283;22007;-60
2023/11/14 01:29:51;;;;;;;11.90;7.70;;;;;;;6.82;54.82;100405.31;108347;1284;21991;-73
2023/11/14 01:32:17;;;;;;;10.10;6.30;;;;;;;6.83;54.78;100405.66;108237;1284;21999;-74
2023/11/14 01:34:42;;;;;;;14.00;7.00;;;;;;;6.84;54.93;100406.70;108194;1276;21983;-74
2023/11/14 01:37:09;;;;;;;9.90;6.50;;;;;;;6.85;54.89;100401.30;108151;1283;22022;-63
2023/11/14 01:39:34;;;;;;;11.90;6.20;;;;;;;6.84;54.97;100402.33;108183;1274;21998;-74
2023/11/14 01:42:00;;;;;;;10.00;6.20;;;;;;;6.80;54.63;100402.51;108203;1274;22531;-60
2023/11/14 01:44:26;;;;;;;9.30;5.60;;;;;;;6.74;54.50;100403.53;108213;1284;21986;-74
2023/11/14 01:46:52;;;;;;;8.40;5.10;;;;;;;6.71;54.56;100399.15;108267;1281;22006;-74
2023/11/14 01:49:18;;;;;;;10.40;5.30;;;;;;;6.68;54.58;100397.56;108137;1280;21989;-73
2023/11/14 01:51:44;;;;;;;7.80;4.80;;;;;;;6.66;54.59;100394.77;108080;1284;22022;-74
2023/11/14 01:54:10;;;;;;;9.90;5.80;;;;;;;6.63;54.59;100394.93;108050;1279;22018;-60
2023/11/14 01:56:36;;;;;;;8.10;5.20;;;;;;;6.63;54.80;100394.23;108191;1285;21986;-60
2023/11/14 01:59:02;;;;;;;9.00;5.80;;;;;;;6.64;54.92;100389.02;108169;1281;21983;-60
2023/11/14 02:01:28;;;;;;;10.00;5.80;;;;;;;6.67;55.11;100385.02;108205;1285;21988;-73
2023/11/14 02:03:54;;;;;;;10.70;5.50;;;;;;;6.72;55.13;100386.61;108238;1279;21988;-73
2023/11/14 02:06:19;;;;;;;10.90;4.80;;;;;;;6.76;55.17;100387.67;108274;1284;21988;-72
2023/11/14 02:08:46;;;;;;;13.30;7.30;;;;;;;6.77;55.15;100384.01;108214;1277;22002;-59
2023/11/14 02:11:11;;;;;;;13.90;6.40;;;;;;;6.75;55.07;100378.25;108254;1278;22003;-73
2023/11/14 02:13:37;;;;;;;14.40;7.30;;;;;;;6.70;54.60;100378.92;108259;1284;22004;-66
2023/11/14 02:16:03;;;;;;;14.40;7.50;;;;;;;6.64;54.44;100377.67;108298;1284;21979;-73
2023/11/14 02:18:29;;;;;;;16.60;7.80;;;;;;;6.61;54.49;100375.94;108308;1280;21988;-73
2023/11/14 02:20:55;;;;;;;14.70;7.80;;;;;;;6.58;54.44;100376.09;108173;1281;21992;-73
2023/11/14 02:23:20;;;;;;;13.70;8.30;;;;;;;6.55;54.42;100375.03;108210;1278;22441;-60
2023/11/14 02:25:46;;;;;;;14.80;8.30;;;;;;;6.52;54.51;100369.77;108181;1278;22017;-75
2023/11/14 02:28:13;;;;;;;14.70;8.00;;;;;;;6.49;54.40;100361.05;108341;1281;22004;-73
2023/11/14 02:30:39;;;;;;;15.30;7.70;;;;;;;6.48;54.53;100359.83;108294;1283;23619;-60
2023/11/14 02:33:06;;;;;;;17.30;7.60;;;;;;;6.48;54.61;100358.09;108342;1284;21981;-73
2023/11/14 02:35:32;;;;;;;11.30;6.00;;;;;;;6.48;54.76;100357.23;108273;1270;22000;-60
2023/11/14 02:37:57;;;;;;;10.30;6.20;;;;;;;6.48;54.82;100360.17;108249;1280;21984;-60
2023/11/14 02:40:23;;;;;;;10.70;5.80;;;;;;;6.47;54.70;100358.77;108309;1281;22000;-73
2023/11/14 02:42:50;;;;;;;10.50;5.70;;;;;;;6.46;54.71;100359.30;108272;1283;22021;-60
2023/11/14 02:45:16;;;;;;;10.80;6.60;;;;;;;6.45;54.74;100361.04;107659;1283;1002386;-59
2023/11/14 02:47:42;;;;;;;11.60;6.70;;;;;;;6.40;54.62;100363.46;108319;1284;21980;-60
2023/11/14 02:50:16;;;;;;;8.30;5.50;;;;;;;6.36;54.46;100366.06;108262;1284;21978;-74
2023/11/14 02:52:41;;;;;;;9.80;5.90;;;;;;;6.32;54.24;100365.16;108320;1276;21984;-59
2023/11/14 02:55:07;;;;;;;12.80;6.10;;;;;;;6.28;54.43;100364.45;108335;1281;21996;-60
2023/11/14 02:57:33;;;;;;;10.80;7.10;;;;;;;6.29;54.65;100368.98;107505;1284;1002964;-59
2023/11/14 02:59:59;;;;;;;11.60;6.90;;;;;;;6.28;54.59;100367.93;107904;1273;1002492;-73
2023/11/14 03:02:25;;;;;;;11.50;6.70;;;;;;;6.27;54.58;100368.63;108205;1283;23957;-59
2023/11/14 03:04:52;;;;;;;10.90;6.70;;;;;;;6.23;54.41;100365.13;108338;1283;24170;-60
2023/11/14 03:07:18;;;;;;;15.10;6.00;;;;;;;6.22;54.65;100363.36;108175;1280;21988;-73
2023/11/14 03:09:43;;;;;;;10.90;5.90;;;;;;;6.21;54.70;100362.84;107465;1283;1002586;-74
2023/11/14 03:12:09;;;;;;;10.00;6.10;;;;;;;6.24;55.04;100362.16;107583;1274;1002470;-74
2023/11/14 03:14:35;;;;;;;9.20;6.10;;;;;;;6.30;55.43;100358.36;108276;1280;21993;-74
2023/11/14 03:17:00;;;;;;;10.10;5.30;;;;;;;6.39;56.07;100349.86;108224;1283;21982;-61
2023/11/14 03:19:26;;;;;;;8.20;5.20;;;;;;;6.53;56.74;100352.53;108186;1280;21986;-61
2023/11/14 03:21:51;;;;;;;9.70;5.50;;;;;;;6.67;57.29;100346.98;108100;1273;21986;-61
2023/11/14 03:24:17;;;;;;;10.00;5.50;;;;;;;6.82;57.54;100339.37;108130;1279;22097;-61
2023/11/14 03:26:43;;;;;;;9.30;5.90;;;;;;;6.96;57.75;100334.17;108193;1280;21989;-62
2023/11/14 03:29:11;;;;;;;8.40;5.40;;;;;;;7.09;57.61;100334.88;108086;1280;22005;-73
2023/11/14 03:31:38;;;;;;;8.00;5.00;;;;;;;7.21;57.83;100334.38;108152;1271;22025;-73
2023/11/14 03:34:06;;;;;;;8.70;5.40;;;;;;;7.32;57.78;100340.31;108110;1284;21984;-72
2023/11/14 03:36:32;;;;;;;8.10;4.90;;;;;;;7.40;57.46;100344.67;107357;1272;1002951;-73
2023/11/14 03:38:57;;;;;;;9.60;5.60;;;;;;;7.47;57.57;100345.90;108194;1284;22002;-61
2023/11/14 03:41:23;;;;;;;8.30;5.50;;;;;;;7.52;57.45;100346.42;108108;1284;23048;-61
2023/11/14 03:43:49;;;;;;;9.10;5.40;;;;;;;7.56;57.28;100341.70;108128;1277;21983;-72
2023/11/14 03:46:14;;;;;;;10.10;5.30;;;;;;;7.60;57.52;100339.79;108196;1278;22554;-61
2023/11/14 03:48:41;;;;;;;9.50;5.40;;;;;;;7.65;57.50;100335.95;108212;1275;22043;-72
2023/11/14 03:51:09;;;;;;;8.00;4.90;;;;;;;7.70;57.59;100335.41;108250;1277;21991;-72
2023/11/14 03:53:37;;;;;;;7.50;4.80;;;;;;;7.76;57.38;100338.20;108157;1281;21976;-61
2023/11/14 03:56:04;;;;;;;9.10;5.30;;;;;;;7.78;56.87;100342.39;108062;1283;23035;-72
2023/11/14 03:58:31;;;;;;;8.80;5.20;;;;;;;7.73;56.58;100341.52;108221;1277;22061;-73
2023/11/14 04:00:57;;;;;;;8.70;5.20;;;;;;;7.68;56.46;100343.46;108171;1271;22086;-61
2023/11/14 04:03:23;;;;;;;9.30;4.60;;;;;;;7.62;56.15;100343.45;108141;1280;21984;-73
2023/11/14 04:05:49;;;;;;;8.30;4.90;;;;;;;7.55;55.98;100343.10;108212;1281;21985;-73
2023/11/14 04:08:16;;;;;;;7.50;4.80;;;;;;;7.48;56.08;100332.30;108101;1280;21992;-73
2023/11/14 04:10:42;;;;;;;8.90;5.20;;;;;;;7.41;55.94;100319.71;108173;1273;21991;-72
2023/11/14 04:13:07;;;;;;;16.30;5.90;;;;;;;7.36;56.09;100311.85;108194;1284;22004;-73
2023/11/14 04:15:33;;;;;;;12.10;6.30;;;;;;;7.37;56.63;100317.61;108240;1280;21988;-61
2023/11/14 04:17:59;;;;;;;10.70;5.70;;;;;;;7.42;56.50;100324.27;108207;1284;21984;-61
2023/11/14 04:20:24;;;;;;;10.30;5.60;;;;;;;7.43;56.63;100317.80;108195;1284;22754;-63
2023/11/14 04:22:50;;;;;;;9.10;5.40;;;;;;;7.45;56.84;100314.83;108198;1277;21985;-73
2023/11/14 04:25:15;;;;;;;8.10;5.60;;;;;;;7.50;57.30;100313.95;108308;1278;21974;-72
2023/11/14 04:27:41;;;;;;;8.20;5.10;;;;;;;7.55;57.79;100305.90;108292;1281;21988;-72
2023/11/14 04:30:07;;;;;;;10.40;5.90;;;;;;;7.61;58.09;100298.39;108213;1278;21989;-61
2023/11/14 04:32:33;;;;;;;9.30;6.10;;;;;;;7.67;58.45;100298.22;108276;1284;22036;-72
2023/11/14 04:34:59;;;;;;;11.20;6.60;;;;;;;7.73;58.50;100298.20;108346;1278;21986;-72
2023/11/14 04:37:24;;;;;;;10.10;6.70;;;;;;;7.80;58.62;100295.05;108310;1277;21991;-69
2023/11/14 04:39:50;;;;;;;21.10;7.50;;;;;;;7.86;58.54;100295.56;108372;1281;22023;-61
2023/11/14 04:42:16;;;;;;;16.80;6.30;;;;;;;7.91;58.35;100295.90;108276;1284;21986;-72
2023/11/14 04:44:41;;;;;;;16.10;7.40;;;;;;;7.93;58.15;100291.36;108216;1283;21979;-74
2023/11/14 04:47:07;;;;;;;14.50;8.40;;;;;;;7.95;58.22;100289.24;108270;1280;21970;-71
2023/11/14 04:49:33;;;;;;;16.90;8.80;;;;;;;7.97;58.62;100293.60;108207;1280;21985;-61
2023/11/14 04:51:59;;;;;;;17.40;9.00;;;;;;;8.00;58.85;100292.19;108187;1272;22520;-70
2023/11/14 04:54:25;;;;;;;12.60;7.70;;;;;;;8.05;58.69;100297.77;108250;1281;22171;-71
2023/11/14 04:56:50;;;;;;;17.40;8.70;;;;;;;8.09;58.54;100301.60;108240;1277;21996;-70
2023/11/14 04:59:16;;;;;;;12.90;8.50;;;;;;;8.12;58.83;100298.98;108208;1284;21991;-70
2023/11/14 05:01:41;;;;;;;15.30;8.70;;;;;;;8.17;58.71;100294.41;108305;1281;22000;-61
2023/11/14 05:04:07;;;;;;;15.00;9.40;;;;;;;8.21;58.93;100295.96;108253;1284;21992;-70
2023/11/14 05:06:33;;;;;;;15.40;9.00;;;;;;;8.22;59.40;100295.09;108209;1284;21989;-61
2023/11/14 05:08:58;;;;;;;15.30;10.40;;;;;;;8.27;59.35;100298.56;108188;1277;21984;-62
2023/11/14 05:11:24;;;;;;;19.10;10.40;;;;;;;8.33;59.45;100299.08;108238;1276;21986;-68
2023/11/14 05:13:50;;;;;;;14.90;9.80;;;;;;;8.40;59.80;100301.14;108201;1276;22463;-62
2023/11/14 05:16:15;;;;;;;14.70;9.70;;;;;;;8.46;60.11;100311.42;108197;1283;21977;-62
2023/11/14 05:18:41;;;;;;;17.30;9.50;;;;;;;8.52;60.41;100316.50;108177;1284;21984;-62
2023/11/14 05:21:07;;;;;;;14.40;9.60;;;;;;;8.57;60.22;100325.57;108228;1284;21984;-68
2023/11/14 05:23:33;;;;;;;15.40;9.00;;;;;;;8.62;60.35;100327.30;108228;1284;22061;-63
2023/11/14 05:25:59;;;;;;;15.70;9.20;;;;;;;8.65;60.44;100323.08;108147;1284;21981;-68
2023/11/14 05:28:24;;;;;;;16.30;10.00;;;;;;;8.69;60.62;100319.39;108197;1284;21991;-67
2023/11/14 05:30:50;;;;;;;13.30;8.90;;;;;;;8.74;60.68;100311.48;108376;1284;21985;-62
2023/11/14 05:33:16;;;;;;;14.40;8.80;;;;;;;8.81;60.71;100314.77;108291;1284;22247;-66
2023/11/14 05:35:41;;;;;;;15.20;9.10;;;;;;;8.86;60.59;100315.09;108167;1284;21991;-62
2023/11/14 05:38:07;;;;;;;13.70;9.10;;;;;;;8.93;60.68;100312.94;108157;1280;22022;-66
2023/11/14 05:40:33;;;;;;;14.70;9.50;;;;;;;8.99;60.85;100299.95;108195;1284;21990;-61
2023/11/14 05:42:59;;;;;;;17.20;9.40;;;;;;;9.09;60.73;100292.00;108200;1280;21995;-61
2023/11/14 05:45:25;;;;;;;15.80;10.90;;;;;;;9.18;60.88;100286.87;108109;1284;22449;-65
2023/11/14 05:47:50;;;;;;;18.10;10.20;;;;;;;9.24;60.77;100288.05;108180;1277;23683;-66
2023/11/14 05:50:16;;;;;;;15.10;9.20;;;;;;;9.29;60.81;100290.96;108229;1275;21995;-62
2023/11/14 05:52:41;;;;;;;14.50;9.00;;;;;;;9.35;60.97;100296.17;108043;1284;21997;-62
2023/11/14 05:55:08;;;;;;;14.30;9.70;;;;;;;9.40;61.27;100301.74;108220;1284;22010;-67
2023/11/14 05:57:33;;;;;;;13.50;8.80;;;;;;;9.47;61.33;100302.73;108231;1281;21989;-61
2023/11/14 05:59:59;;;;;;;14.80;9.00;;;;;;;9.57;61.52;100300.70;108222;1284;21980;-61
2023/11/14 06:02:25;;;;;;;11.80;7.50;;;;;;;9.65;61.34;100299.92;108325;1284;23613;-67
2023/11/14 06:04:50;;;;;;;11.40;7.50;;;;;;;9.73;61.53;100300.38;108183;1284;21991;-61
2023/11/14 06:07:17;;;;;;;12.20;7.80;;;;;;;9.81;61.45;100300.64;108227;1284;22001;-67
2023/11/14 06:09:42;;;;;;;11.30;7.30;;;;;;;9.91;61.15;100304.05;108131;1280;21995;-67
2023/11/14 06:12:10;;;;;;;12.40;7.70;;;;;;;9.99;61.09;100303.79;108221;1284;21991;-61
2023/11/14 06:14:35;;;;;;;10.90;7.30;;;;;;;10.02;60.76;100294.11;108110;1284;21998;-68
2023/11/14 06:17:01;;;;;;;11.70;7.40;;;;;;;10.02;60.84;100291.11;108150;1277;21983;-62
2023/11/14 06:19:28;;;;;;;12.90;7.00;;;;;;;10.04;60.52;100285.50;108300;1284;21988;-67
2023/11/14 06:21:54;;;;;;;9.40;6.70;;;;;;;10.05;60.24;100282.50;108201;1277;21986;-62
2023/11/14 06:24:19;;;;;;;11.00;7.10;;;;;;;10.07;60.38;100277.41;108239;1280;21976;-68
2023/11/14 06:26:45;;;;;;;11.10;6.30;;;;;;;10.10;60.48;100280.87;108212;1284;21989;-64
2023/11/14 06:29:11;;;;;;;10.00;6.20;;;;;;;10.17;60.64;100283.23;108184;1280;21982;-65
2023/11/14 06:31:37;;;;;;;8.80;5.60;;;;;;;10.28;61.00;100278.55;108269;1284;22009;-66
2023/11/14 06:34:03;;;;;;;8.40;5.30;;;;;;;10.44;61.29;100278.71;108298;1284;22002;-58
2023/11/14 06:36:29;;;;;;;8.40;4.80;;;;;;;10.62;61.70;100279.02;108163;1284;22024;-58
2023/11/14 06:38:55;;;;;;;9.70;5.70;;;;;;;10.80;61.46;100270.85;108173;1283;21996;-59
2023/11/14 06:41:24;;;;;;;7.70;5.00;;;;;;;10.99;61.09;100263.18;108117;1273;21986;-58
2023/11/14 06:43:50;;;;;;;6.90;4.30;;;;;;;11.19;60.71;100255.85;108177;1280;21988;-67
2023/11/14 06:46:16;;;;;;;6.30;4.10;;;;;;;11.34;60.47;100249.45;108192;1284;21997;-59
2023/11/14 06:48:41;;;;;;;5.80;3.80;;;;;;;11.49;60.26;100242.67;106786;1284;1002538;-68
2023/11/14 06:51:07;;;;;;;10.60;3.70;;;;;;;11.62;59.73;100241.39;108364;1277;21986;-61
2023/11/14 06:53:33;;;;;;;6.00;3.90;;;;;;;11.70;59.51;100240.34;108290;1284;21981;-61
2023/11/14 06:55:58;;;;;;;6.10;3.40;;;;;;;11.79;59.37;100244.73;108251;1274;22016;-61
2023/11/14 06:58:25;;;;;;;5.10;3.40;;;;;;;11.89;59.20;100251.77;108277;1280;21988;-61
2023/11/14 07:00:51;;;;;;;5.50;3.20;;;;;;;11.99;59.07;100251.57;108237;1284;21995;-70
2023/11/14 07:03:16;;;;;;;5.90;3.50;;;;;;;12.11;59.03;100252.93;108265;1284;21988;-64
2023/11/14 07:05:43;;;;;;;6.40;3.70;;;;;;;12.24;58.85;100251.79;108288;1283;21994;-61
2023/11/14 07:08:10;;;;;;;4.80;3.30;;;;;;;12.35;58.87;100243.46;108212;1284;21956;-64
2023/11/14 07:10:36;;;;;;;6.10;3.70;;;;;;;12.46;58.41;100237.95;108271;1273;21988;-70
2023/11/14 07:13:02;;;;;;;4.80;3.00;;;;;;;12.54;58.28;100230.56;108301;1284;21987;-70
2023/11/14 07:15:28;;;;;;;5.40;3.20;;;;;;;12.60;58.24;100215.45;108380;1284;22021;-61
2023/11/14 07:17:54;;;;;;;5.70;3.30;;;;;;;12.65;58.00;100202.48;108288;1284;21974;-61
2023/11/14 07:20:20;;;;;;;6.40;3.20;;;;;;;12.71;58.18;100201.48;108240;1284;21983;-61
2023/11/14 07:22:49;;;;;;;5.50;3.50;;;;;;;12.80;58.20;100206.87;108298;1280;21984;-61
2023/11/14 07:25:16;;;;;;;5.60;3.50;;;;;;;12.88;57.82;100209.88;108247;1284;22019;-71
2023/11/14 07:27:42;;;;;;;5.90;3.60;;;;;;;12.97;57.83;100211.74;108304;1284;21987;-70
2023/11/14 07:30:09;;;;;;;7.60;3.70;;;;;;;13.11;58.16;100214.92;108291;1280;21981;-61
2023/11/14 07:32:34;;;;;;;5.70;3.80;;;;;;;13.30;58.19;100214.80;108352;1284;21974;-70
2023/11/14 07:35:00;;;;;;;6.60;3.90;;;;;;;13.45;58.30;100205.61;108221;1284;21987;-61
2023/11/14 07:37:26;;;;;;;5.80;3.90;;;;;;;13.57;57.97;100194.72;108156;1274;21989;-61
2023/11/14 07:39:51;;;;;;;6.20;3.90;;;;;;;13.68;57.48;100183.82;108084;1284;21999;-71
2023/11/14 07:42:17;;;;;;;6.30;3.80;;;;;;;13.79;57.47;100185.11;108130;1280;21995;-71
2023/11/14 07:44:43;;;;;;;7.00;3.70;;;;;;;13.89;57.53;100186.94;107534;1277;1002128;-73
2023/11/14 07:47:08;;;;;;;6.20;3.50;;;;;;;14.05;57.55;100182.60;108219;1278;22022;-71
2023/11/14 07:49:34;;;;;;;5.60;3.60;;;;;;;14.18;57.00;100174.45;108294;1283;21984;-61
2023/11/14 07:52:00;;;;;;;6.20;3.60;;;;;;;14.22;55.84;100173.95;108218;1284;21984;-72
2023/11/14 07:54:25;;;;;;;5.30;3.10;;;;;;;14.26;56.02;100176.49;108318;1272;21980;-61
2023/11/14 07:56:51;;;;;;;7.10;3.50;;;;;;;14.33;55.62;100176.63;108177;1280;22097;-61
2023/11/14 07:59:17;;;;;;;6.60;3.20;;;;;;;14.43;55.15;100167.68;108160;1284;22449;-71
2023/11/14 08:01:45;;;;;;;6.60;3.20;;;;;;;14.60;55.53;100155.66;108198;1274;21986;-62
2023/11/14 08:04:10;;;;;;;10.10;3.60;;;;;;;14.75;54.65;100149.36;108225;1284;21989;-61
2023/11/14 08:06:37;;;;;;;5.50;3.40;;;;;;;14.84;53.94;100154.20;108228;1278;21989;-72
2023/11/14 08:09:04;;;;;;;6.80;3.20;;;;;;;14.92;53.53;100155.33;108276;1284;21983;-72
2023/11/14 08:11:31;;;;;;;7.30;3.30;;;;;;;15.11;54.71;100155.93;108246;1283;21998;-70
2023/11/14 08:13:58;;;;;;;6.10;3.00;;;;;;;15.24;53.91;100165.73;108214;1275;21984;-72
2023/11/14 08:16:23;;;;;;;9.40;3.50;;;;;;;15.37;53.33;100161.59;108223;1274;21989;-72
2023/11/14 08:18:50;;;;;;;5.20;3.10;;;;;;;15.52;53.92;100157.00;108258;1284;21984;-72
2023/11/14 08:21:15;;;;;;;8.40;3.40;;;;;;;15.66;53.47;100152.59;108222;1275;21988;-61
2023/11/14 08:23:42;;;;;;;7.30;3.00;;;;;;;15.75;52.56;100153.83;108212;1280;22264;-72
2023/11/14 08:26:09;;;;;;;7.20;3.40;;;;;;;15.88;52.41;100155.33;108321;1283;22048;-59
2023/11/14 08:28:34;;;;;;;6.50;3.30;;;;;;;15.86;51.12;100155.55;108249;1274;21946;-58
2023/11/14 08:31:00;;;;;;;5.90;3.70;;;;;;;15.96;51.51;100147.95;108235;1278;21940;-60
2023/11/14 08:33:26;;;;;;;5.20;3.10;;;;;;;16.11;52.02;100134.80;108193;1284;22006;-61
2023/11/14 08:35:51;;;;;;;5.70;3.40;;;;;;;16.16;51.55;100122.23;108229;1277;22021;-72
2023/11/14 08:38:17;;;;;;;5.40;2.80;;;;;;;16.17;50.33;100121.99;108225;1275;21998;-73
2023/11/14 08:40:43;;;;;;;7.80;3.90;;;;;;;16.19;49.95;100114.13;108243;1283;21999;-70
2023/11/14 08:43:08;;;;;;;7.30;3.90;;;;;;;16.23;49.48;100100.38;108230;1274;22007;-62
2023/11/14 08:45:35;;;;;;;6.40;3.70;;;;;;;16.27;49.99;100091.34;108202;1284;21984;-71
2023/11/14 08:48:03;;;;;;;8.90;3.90;;;;;;;16.30;49.96;100083.45;108197;1280;22005;-73
2023/11/14 08:50:29;;;;;;;7.70;4.10;;;;;;;16.26;48.39;100084.65;108258;1277;21991;-62
2023/11/14 08:52:56;;;;;;;6.50;4.20;;;;;;;16.19;48.26;100082.98;108254;1278;21999;-62
2023/11/14 08:55:21;;;;;;;8.20;4.70;;;;;;;16.22;49.33;100083.73;108241;1284;21977;-72
2023/11/14 08:57:47;;;;;;;10.30;4.20;;;;;;;16.29;50.01;100079.75;108209;1284;21986;-62
2023/11/14 09:00:13;;;;;;;7.30;4.70;;;;;;;16.28;49.15;100080.33;108227;1284;23734;-62
2023/11/14 09:02:40;;;;;;;7.90;4.10;;;;;;;16.18;48.53;100070.27;107533;1278;1002563;-62
2023/11/14 09:05:09;;;;;;;6.60;3.50;;;;;;;16.14;48.89;100061.58;108094;1284;22041;-72
2023/11/14 09:07:36;;;;;;;7.40;3.90;;;;;;;16.24;49.46;100055.00;108265;1284;22765;-62
2023/11/14 09:10:03;;;;;;;9.10;4.30;;;;;;;16.25;49.16;100054.41;108189;1283;169022;-62
2023/11/14 09:12:33;;;;;;;7.60;4.00;;;;;;;16.25;49.51;100048.74;108249;1284;21986;-73
2023/11/14 09:14:59;;;;;;;7.60;4.20;;;;;;;16.29;49.45;100040.31;108247;1281;22024;-73
2023/11/14 09:17:25;;;;;;;7.70;4.20;;;;;;;16.26;49.26;100033.15;108216;1284;21983;-62
2023/11/14 09:19:52;;;;;;;7.10;3.80;;;;;;;16.29;49.56;100036.92;108257;1283;21979;-62
2023/11/14 09:22:18;;;;;;;5.80;3.40;;;;;;;16.27;49.45;100033.44;108174;1284;22015;-62
2023/11/14 09:24:45;;;;;;;9.30;4.30;;;;;;;16.22;49.60;100024.09;108250;1284;21998;-62
2023/11/14 09:27:12;;;;;;;7.80;4.00;;;;;;;16.13;49.60;100014.55;108279;1284;21984;-73
2023/11/14 09:29:37;;;;;;;10.60;4.10;;;;;;;16.08;49.70;99996.88;108182;1284;22170;-69
2023/11/14 09:32:04;;;;;;;8.30;4.00;;;;;;;16.06;50.27;99992.02;108362;1284;21983;-62
2023/11/14 09:34:30;;;;;;;5.90;3.40;;;;;;;16.09;50.65;99986.42;108213;1284;21979;-61
2023/11/14 09:36:57;;;;;;;6.40;4.30;;;;;;;16.09;50.73;99981.11;108171;1280;21997;-61
2023/11/14 09:39:23;;;;;;;6.90;4.10;;;;;;;16.05;50.97;99984.25;108198;1283;21983;-73
2023/11/14 09:41:49;;;;;;;6.40;3.80;;;;;;;16.10;51.29;99988.30;108138;1274;22262;-73
2023/11/14 09:44:15;;;;;;;6.30;4.00;;;;;;;16.21;51.68;99981.64;108168;1284;21985;-62
2023/11/14 09:46:41;;;;;;;8.30;3.90;;;;;;;16.28;51.35;99979.95;108170;1284;21988;-62
2023/11/14 09:49:07;;;;;;;10.20;4.10;;;;;;;16.41;51.26;99979.21;108096;1284;24342;-61
2023/11/14 09:51:33;;;;;;;12.90;4.20;;;;;;;16.53;51.65;99976.26;108142;1284;21994;-63
2023/11/14 09:53:59;;;;;;;6.10;3.50;;;;;;;16.63;51.90;99975.27;108207;1284;21982;-73
2023/11/14 09:56:24;;;;;;;7.50;4.00;;;;;;;16.68;51.56;99962.83;108157;1276;21987;-73
2023/11/14 09:58:51;;;;;;;8.80;4.10;;;;;;;16.69;51.03;99958.35;108139;1284;21985;-61
2023/11/14 10:01:16;;;;;;;6.80;3.90;;;;;;;16.65;50.71;99947.90;108102;1284;21991;-62
2023/11/14 10:03:42;;;;;;;5.10;3.20;;;;;;;16.60;50.93;99946.65;108198;1284;21989;-61
2023/11/14 10:32:15;;;;;;;7.20;3.90;;;;;;;13.10;79.61;99932.83;107378;1292;549843;-67
2023/11/14 10:34:41;;;;;;;6.80;3.00;;;;;;;15.59;61.24;99903.48;107677;1293;21980;-69
2023/11/14 10:37:07;;;;;;;6.50;3.40;;;;;;;15.88;58.61;99885.15;107422;1296;21990;-61
2023/11/14 10:39:33;;;;;;;4.90;2.90;;;;;;;15.96;58.03;99860.44;106682;1295;1002491;-68
2023/11/14 10:41:59;;;;;;;7.10;3.00;;;;;;;16.02;57.63;99832.20;107456;1295;21995;-67
2023/11/14 10:44:25;;;;;;;7.50;3.20;;;;;;;16.05;57.00;99818.82;107300;1292;212704;-67
2023/11/14 10:46:55;;;;;;;6.40;3.30;;;;;;;16.01;57.25;99789.59;107776;1292;21991;-61
2023/11/14 10:49:23;;;;;;;13.10;9.70;;;;;;;15.98;57.11;99744.81;107836;1282;24451;-60
2023/11/14 10:51:50;;;;;;;5.30;3.20;;;;;;;15.88;56.86;99725.41;107783;1287;22031;-67
2023/11/14 10:54:16;;;;;;;6.10;3.20;;;;;;;15.82;57.66;99737.87;107812;1292;21993;-62
2023/11/14 10:56:42;;;;;;;7.90;3.40;;;;;;;15.82;58.22;99774.66;107798;1290;21991;-62
2023/11/14 10:59:10;;;;;;;5.50;2.70;;;;;;;15.85;58.33;99799.84;108002;1292;21988;-67
2023/11/14 11:01:40;;;;;;;6.60;3.60;;;;;;;15.81;58.56;99805.29;107944;1293;21989;-62
2023/11/14 11:04:09;;;;;;;4.50;3.20;;;;;;;15.81;58.73;99817.67;107820;1293;22026;-61
2023/11/14 11:06:36;;;;;;;4.90;2.70;;;;;;;15.82;59.42;99806.15;107857;1293;21995;-63
2023/11/14 11:09:05;;;;;;;5.20;2.90;;;;;;;15.91;60.12;99790.39;107797;1293;21999;-66
2023/11/14 11:11:38;;;;;;;5.00;2.90;;;;;;;16.06;60.14;99802.45;107857;1287;21988;-67
2023/11/14 11:14:05;;;;;;;4.40;2.60;;;;;;;16.28;59.84;99807.52;107818;1287;21973;-61
2023/11/14 11:16:43;;;;;;;5.50;3.00;;;;;;;16.40;58.93;99803.27;108012;1292;21996;-61
2023/11/14 11:19:10;;;;;;;5.20;3.00;;;;;;;16.43;58.11;99800.10;107877;1292;21997;-61
2023/11/14 11:21:36;;;;;;;9.50;2.90;;;;;;;16.52;58.27;99809.99;107827;1284;21987;-61
2023/11/14 11:24:12;;;;;;;6.40;3.30;;;;;;;16.57;57.87;99818.97;107820;1290;22199;-61
2023/11/14 11:27:09;;;;;;;7.50;3.40;;;;;;;16.59;57.91;99819.77;107846;1290;21987;-69
2023/11/14 11:29:57;;;;;;;5.60;3.20;;;;;;;16.73;57.96;99820.73;107906;1280;21999;-68
2023/11/14 11:32:37;;;;;;;5.20;3.40;;;;;;;16.90;57.87;99819.38;107910;1290;21991;-68
2023/11/14 11:35:34;;;;;;;6.90;3.50;;;;;;;17.01;56.77;99822.11;107880;1291;21971;-69
2023/11/14 11:38:07;;;;;;;6.80;3.60;;;;;;;17.04;56.85;99819.30;107721;1291;23781;-64
2023/11/14 11:40:33;;;;;;;6.70;3.30;;;;;;;17.09;56.58;99823.47;107825;1290;22001;-70